createdAt,value
2019-01-13T00:01:09.881Z,7.16
2019-01-13T00:03:38.397Z,7.16
2019-01-13T00:06:06.954Z,7.19
2019-01-13T00:08:35.375Z,7.26
2019-01-13T00:11:03.962Z,7.41
2019-01-13T00:13:32.378Z,7.24
2019-01-13T00:16:00.862Z,7.24
2019-01-13T00:18:29.572Z,7.18
2019-01-13T00:20:57.991Z,7.14
2019-01-13T00:23:26.405Z,7.09
2019-01-13T00:25:55.076Z,7.04
2019-01-13T00:28:23.491Z,7.00
2019-01-13T00:30:51.986Z,7.01
2019-01-13T00:33:20.478Z,7.02
2019-01-13T00:35:48.971Z,6.99
2019-01-13T00:38:17.386Z,7.11
2019-01-13T00:40:45.830Z,7.06
2019-01-13T00:43:14.246Z,6.98
2019-01-13T00:45:42.672Z,7.15
2019-01-13T00:48:11.144Z,7.06
2019-01-13T00:50:39.541Z,7.08
2019-01-13T00:53:07.958Z,7.14
2019-01-13T00:55:36.558Z,7.19
2019-01-13T00:58:05.306Z,7.00
2019-01-13T01:00:33.796Z,7.04
2019-01-13T01:03:02.250Z,7.06
2019-01-13T01:05:31.111Z,6.99
2019-01-13T01:07:59.598Z,6.96
2019-01-13T01:10:28.199Z,7.01
2019-01-13T01:12:57.029Z,7.03
2019-01-13T01:15:25.550Z,7.18
2019-01-13T01:17:54.135Z,7.12
2019-01-13T01:20:22.662Z,7.20
2019-01-13T01:22:51.275Z,7.20
2019-01-13T01:25:19.743Z,7.10
2019-01-13T01:27:48.255Z,7.11
2019-01-13T01:30:20.375Z,7.07
2019-01-13T01:32:49.159Z,7.10
2019-01-13T01:35:17.921Z,7.25
2019-01-13T01:37:46.879Z,7.22
2019-01-13T01:40:17.304Z,7.16
2019-01-13T01:42:46.274Z,7.13
2019-01-13T01:45:16.835Z,7.18
2019-01-13T01:47:45.290Z,7.13
2019-01-13T01:50:14.250Z,7.10
2019-01-13T01:52:43.004Z,7.08
2019-01-13T01:55:14.086Z,7.17
2019-01-13T01:57:42.654Z,7.30
2019-01-13T02:00:17.119Z,7.31
2019-01-13T02:02:46.009Z,7.12
2019-01-13T02:05:14.502Z,7.29
2019-01-13T02:07:43.009Z,7.31
2019-01-13T02:10:19.582Z,7.37
2019-01-13T02:12:48.242Z,7.52
2019-01-13T02:15:19.533Z,7.51
2019-01-13T02:17:48.108Z,7.38
2019-01-13T02:20:18.762Z,7.45
2019-01-13T02:22:47.818Z,7.46
2019-01-13T02:25:19.250Z,7.42
2019-01-13T02:27:47.806Z,7.38
2019-01-13T02:30:18.982Z,7.51
2019-01-13T02:32:47.474Z,7.67
2019-01-13T02:35:15.962Z,7.52
2019-01-13T02:37:44.451Z,7.41
2019-01-13T02:40:17.856Z,7.43
2019-01-13T02:42:46.411Z,7.50
2019-01-13T02:45:17.607Z,7.48
2019-01-13T02:47:46.126Z,7.47
2019-01-13T02:50:14.880Z,7.47
2019-01-13T02:52:43.300Z,7.39
2019-01-13T02:55:11.978Z,7.40
2019-01-13T02:57:40.561Z,7.35
2019-01-13T03:00:12.082Z,7.39
2019-01-13T03:02:40.619Z,7.42
2019-01-13T03:05:10.894Z,7.38
2019-01-13T03:07:39.298Z,7.55
2019-01-13T03:10:10.786Z,7.43
2019-01-13T03:12:39.379Z,7.52
2019-01-13T03:15:09.636Z,7.45
2019-01-13T03:17:38.083Z,7.47
2019-01-13T03:20:09.657Z,7.40
2019-01-13T03:22:38.153Z,7.38
2019-01-13T03:25:12.359Z,7.36
2019-01-13T03:27:40.834Z,7.48
2019-01-13T03:30:15.302Z,7.40
2019-01-13T03:32:43.729Z,7.63
2019-01-13T03:35:12.376Z,7.46
2019-01-13T03:37:40.891Z,7.43
2019-01-13T03:40:12.530Z,7.38
2019-01-13T03:42:40.942Z,7.40
2019-01-13T03:45:10.639Z,7.42
2019-01-13T03:47:39.128Z,7.39
2019-01-13T03:50:10.627Z,7.38
2019-01-13T03:52:39.140Z,7.41
2019-01-13T03:55:09.095Z,7.37
2019-01-13T03:57:37.582Z,7.41
2019-01-13T04:00:11.758Z,7.37
2019-01-13T04:02:40.249Z,7.46
2019-01-13T04:05:08.815Z,7.38
2019-01-13T04:07:37.325Z,7.42
2019-01-13T04:10:08.984Z,7.50
2019-01-13T04:12:37.481Z,7.35
2019-01-13T04:15:11.385Z,7.48
2019-01-13T04:17:40.062Z,7.38
2019-01-13T04:20:08.632Z,7.36
2019-01-13T04:22:37.069Z,7.34
2019-01-13T04:25:05.924Z,7.51
2019-01-13T04:27:34.341Z,7.39
2019-01-13T04:30:02.858Z,7.37
2019-01-13T04:32:31.276Z,7.42
2019-01-13T04:34:59.691Z,7.27
2019-01-13T04:37:28.144Z,7.32
2019-01-13T04:39:56.564Z,7.38
2019-01-13T04:42:24.983Z,7.40
2019-01-13T04:44:53.446Z,7.22
2019-01-13T04:47:21.864Z,7.25
2019-01-13T04:49:50.376Z,7.25
2019-01-13T04:52:18.896Z,7.31
2019-01-13T04:54:47.306Z,7.32
2019-01-13T04:57:15.719Z,7.36
2019-01-13T04:59:44.166Z,7.34
2019-01-13T05:02:12.613Z,7.33
2019-01-13T05:04:41.073Z,7.45
2019-01-13T05:07:09.528Z,7.66
2019-01-13T05:09:37.950Z,7.56
2019-01-13T05:12:06.389Z,7.55
2019-01-13T05:14:34.913Z,7.58
2019-01-13T05:17:03.394Z,7.52
2019-01-13T05:19:31.843Z,7.48
2019-01-13T05:22:00.303Z,7.45
2019-01-13T05:24:28.722Z,7.39
2019-01-13T05:26:57.146Z,7.40
2019-01-13T05:29:25.700Z,7.36
2019-01-13T05:31:54.123Z,7.42
2019-01-13T05:34:22.551Z,7.37
2019-01-13T05:36:51.001Z,7.33
2019-01-13T05:39:19.417Z,7.45
2019-01-13T05:41:47.902Z,7.43
2019-01-13T05:44:18.057Z,7.37
2019-01-13T05:46:46.497Z,7.48
2019-01-13T05:49:14.922Z,7.44
2019-01-13T05:51:43.441Z,7.69
2019-01-13T05:54:11.927Z,7.59
2019-01-13T05:56:40.344Z,7.78
2019-01-13T05:59:08.794Z,7.71
2019-01-13T06:01:37.282Z,7.52
2019-01-13T06:04:05.770Z,7.53
2019-01-13T06:06:34.214Z,7.50
2019-01-13T06:09:02.633Z,7.53
2019-01-13T06:11:31.055Z,7.57
2019-01-13T06:13:59.654Z,7.62
2019-01-13T06:16:28.069Z,7.71
2019-01-13T06:18:56.491Z,7.77
2019-01-13T06:21:24.946Z,7.55
2019-01-13T06:23:53.363Z,7.59
2019-01-13T06:26:21.782Z,7.62
2019-01-13T06:28:50.246Z,7.51
2019-01-13T06:31:18.727Z,7.60
2019-01-13T06:33:47.151Z,7.54
2019-01-13T06:36:15.755Z,7.50
2019-01-13T06:38:44.188Z,7.65
2019-01-13T06:41:12.591Z,7.55
2019-01-13T06:43:41.055Z,7.55
2019-01-13T06:46:09.611Z,7.64
2019-01-13T06:48:38.026Z,7.72
2019-01-13T06:51:06.549Z,7.81
2019-01-13T06:53:34.966Z,7.77
2019-01-13T06:56:03.387Z,7.61
2019-01-13T06:58:31.918Z,7.65
2019-01-13T07:01:00.347Z,7.66
2019-01-13T07:03:28.782Z,7.88
2019-01-13T07:05:57.262Z,7.92
2019-01-13T07:08:25.685Z,7.93
2019-01-13T07:10:54.105Z,7.92
2019-01-13T07:13:22.591Z,7.77
2019-01-13T07:15:51.078Z,7.79
2019-01-13T07:18:19.625Z,7.92
2019-01-13T07:20:48.096Z,7.91
2019-01-13T07:23:16.547Z,7.88
2019-01-13T07:25:45.004Z,7.76
2019-01-13T07:28:13.517Z,7.94
2019-01-13T07:30:41.938Z,7.79
2019-01-13T07:33:10.369Z,7.77
2019-01-13T07:35:38.815Z,7.98
2019-01-13T07:38:07.234Z,7.77
2019-01-13T07:40:35.662Z,7.72
2019-01-13T07:43:04.255Z,8.04
2019-01-13T07:45:32.675Z,7.85
2019-01-13T07:48:01.105Z,7.77
2019-01-13T07:50:29.565Z,7.88
2019-01-13T07:52:58.008Z,7.73
2019-01-13T07:55:26.499Z,7.75
2019-01-13T07:57:55.151Z,7.87
2019-01-13T08:00:28.888Z,7.84
2019-01-13T08:02:57.340Z,8.07
2019-01-13T08:05:26.274Z,7.98
2019-01-13T08:07:54.695Z,7.75
2019-01-13T08:10:23.211Z,7.80
2019-01-13T08:12:51.719Z,7.66
2019-01-13T08:15:21.379Z,7.65
2019-01-13T08:17:49.940Z,7.58
2019-01-13T08:20:23.854Z,7.71
2019-01-13T08:22:52.418Z,7.72
2019-01-13T08:25:20.904Z,7.54
2019-01-13T08:27:49.471Z,7.52
2019-01-13T08:30:19.658Z,7.60
2019-01-13T08:32:48.315Z,7.63
2019-01-13T08:35:17.442Z,7.55
2019-01-13T08:37:45.935Z,7.57
2019-01-13T08:40:16.490Z,7.63
2019-01-13T08:42:44.953Z,7.58
2019-01-13T08:45:13.929Z,7.56
2019-01-13T08:47:42.432Z,7.52
2019-01-13T08:50:16.156Z,7.67
2019-01-13T08:52:44.780Z,7.70
2019-01-13T08:55:13.432Z,7.87
2019-01-13T08:57:41.952Z,7.90
2019-01-13T09:00:13.432Z,7.84
2019-01-13T09:02:41.852Z,7.71
2019-01-13T09:05:10.455Z,7.67
2019-01-13T09:07:38.879Z,7.79
2019-01-13T09:10:10.350Z,7.82
2019-01-13T09:12:38.897Z,7.77
2019-01-13T09:15:13.309Z,7.78
2019-01-13T09:17:41.731Z,7.89
2019-01-13T09:20:15.486Z,7.76
2019-01-13T09:22:43.979Z,7.71
2019-01-13T09:25:12.467Z,7.92
2019-01-13T09:27:41.006Z,7.78
2019-01-13T09:30:18.082Z,7.79
2019-01-13T09:32:46.747Z,7.85
2019-01-13T09:35:15.236Z,7.97
2019-01-13T09:37:43.727Z,7.99
2019-01-13T09:40:18.158Z,8.09
2019-01-13T09:42:46.584Z,8.07
2019-01-13T09:45:15.154Z,8.21
2019-01-13T09:47:43.748Z,8.15
2019-01-13T09:50:14.705Z,8.15
2019-01-13T09:52:43.298Z,8.13
2019-01-13T09:55:14.702Z,8.16
2019-01-13T09:57:43.366Z,8.15
2019-01-13T10:00:17.625Z,8.24
2019-01-13T10:02:46.737Z,8.24
2019-01-13T10:05:15.349Z,8.22
2019-01-13T10:07:43.776Z,8.27
2019-01-13T10:10:13.447Z,8.34
2019-01-13T10:12:42.007Z,8.32
2019-01-13T10:15:16.003Z,8.33
2019-01-13T10:17:44.487Z,8.43
2019-01-13T10:20:14.651Z,8.41
2019-01-13T10:22:43.215Z,8.45
2019-01-13T10:25:12.738Z,8.45
2019-01-13T10:27:41.233Z,8.46
2019-01-13T10:30:21.509Z,8.66
2019-01-13T10:35:40.889Z,8.59
2019-01-13T10:38:09.663Z,8.74
2019-01-13T10:40:38.514Z,8.75
2019-01-13T10:43:07.080Z,8.86
2019-01-13T10:45:35.496Z,8.80
2019-01-13T10:48:04.513Z,8.74
2019-01-13T10:50:33.585Z,8.80
2019-01-13T10:53:02.834Z,8.84
2019-01-13T10:55:31.617Z,8.83
2019-01-13T10:58:00.111Z,8.96
2019-01-13T11:00:33.052Z,8.93
2019-01-13T11:03:02.678Z,8.90
2019-01-13T11:05:31.404Z,8.99
2019-01-13T11:07:59.960Z,8.96
2019-01-13T11:10:28.383Z,9.02
2019-01-13T11:12:57.236Z,9.07
2019-01-13T11:15:25.822Z,9.09
2019-01-13T11:17:54.259Z,9.11
2019-01-13T11:20:25.615Z,9.13
2019-01-13T11:22:54.425Z,9.24
2019-01-13T11:25:22.867Z,9.20
2019-01-13T11:27:51.657Z,9.16
2019-01-13T11:30:22.965Z,9.22
2019-01-13T11:32:51.814Z,9.23
2019-01-13T11:35:20.603Z,9.28
2019-01-13T11:37:49.272Z,9.24
2019-01-13T11:40:20.718Z,9.28
2019-01-13T11:42:49.838Z,9.33
2019-01-13T11:45:18.707Z,9.35
2019-01-13T11:47:47.600Z,9.27
2019-01-13T11:50:18.830Z,9.25
2019-01-13T11:52:47.674Z,9.26
2019-01-13T11:55:17.728Z,9.27
2019-01-13T11:57:46.465Z,9.34
2019-01-13T12:00:17.877Z,9.40
2019-01-13T12:02:46.664Z,9.42
2019-01-13T12:05:16.140Z,9.43
2019-01-13T12:07:45.593Z,9.44
2019-01-13T12:10:17.257Z,9.35
2019-01-13T12:12:46.314Z,9.48
2019-01-13T12:15:16.636Z,9.43
2019-01-13T12:17:45.574Z,9.48
2019-01-13T12:20:16.652Z,9.59
2019-01-13T12:22:45.501Z,9.71
2019-01-13T12:25:16.074Z,9.54
2019-01-13T12:27:45.289Z,9.70
2019-01-13T12:30:28.439Z,9.67
2019-01-13T12:32:57.634Z,9.80
2019-01-13T12:35:26.363Z,9.76
2019-01-13T12:37:54.892Z,9.81
2019-01-13T12:40:25.907Z,9.87
2019-01-13T12:42:54.473Z,9.96
2019-01-13T12:45:24.219Z,9.88
2019-01-13T12:47:53.403Z,9.92
2019-01-13T12:50:24.782Z,9.88
2019-01-13T12:52:53.623Z,9.88
2019-01-13T12:55:22.501Z,9.87
2019-01-13T12:57:51.286Z,9.84
2019-01-13T13:00:20.920Z,9.92
2019-01-13T13:02:49.456Z,9.90
2019-01-13T13:05:17.968Z,9.85
2019-01-13T13:07:47.294Z,9.91
2019-01-13T13:10:34.473Z,9.88
2019-01-13T13:13:02.917Z,10.03
2019-01-13T13:15:31.342Z,9.92
2019-01-13T13:18:00.094Z,9.84
2019-01-13T13:20:28.866Z,9.79
2019-01-13T13:22:57.810Z,9.86
2019-01-13T13:25:31.884Z,9.74
2019-01-13T13:27:57.200Z,9.72
2019-01-13T13:30:28.961Z,9.76
2019-01-13T13:32:58.017Z,9.70
2019-01-13T13:35:26.928Z,9.58
2019-01-13T13:37:55.703Z,9.59
2019-01-13T13:40:26.200Z,9.56
2019-01-13T13:42:55.035Z,9.52
2019-01-13T13:45:23.574Z,9.65
2019-01-13T13:47:52.615Z,9.59
2019-01-13T13:50:24.337Z,9.47
2019-01-13T13:52:54.089Z,9.50
2019-01-13T13:55:23.351Z,9.67
2019-01-13T13:57:52.220Z,9.51
2019-01-13T14:00:29.797Z,9.55
2019-01-13T14:02:58.380Z,9.62
2019-01-13T14:05:27.044Z,9.58
2019-01-13T14:07:55.556Z,9.57
2019-01-13T14:10:27.181Z,9.66
2019-01-13T14:12:55.960Z,9.55
2019-01-13T14:15:24.987Z,9.55
2019-01-13T14:17:53.421Z,9.49
2019-01-13T14:20:22.219Z,9.49
2019-01-13T14:22:51.084Z,9.48
2019-01-13T14:25:19.664Z,9.59
2019-01-13T14:27:48.421Z,9.44
2019-01-13T14:30:22.204Z,9.36
2019-01-13T14:32:50.996Z,9.41
2019-01-13T14:35:19.658Z,9.48
2019-01-13T14:37:48.984Z,9.37
2019-01-13T14:40:23.125Z,9.39
2019-01-13T14:42:51.722Z,9.37
2019-01-13T14:45:22.315Z,9.42
2019-01-13T14:47:50.764Z,9.33
2019-01-13T14:50:21.137Z,9.35
2019-01-13T14:52:50.206Z,9.39
2019-01-13T14:55:18.874Z,9.32
2019-01-13T14:57:47.783Z,9.40
2019-01-13T15:00:22.232Z,9.34
2019-01-13T15:02:50.914Z,9.40
2019-01-13T15:05:19.624Z,9.39
2019-01-13T15:07:48.327Z,9.47
2019-01-13T15:10:21.583Z,9.45
2019-01-13T15:12:50.369Z,9.48
2019-01-13T15:15:19.552Z,9.49
2019-01-13T15:17:48.321Z,9.42
2019-01-13T15:20:18.603Z,9.37
2019-01-13T15:22:47.325Z,9.33
2019-01-13T15:25:18.922Z,9.42
2019-01-13T15:27:47.605Z,9.44
2019-01-13T15:30:25.492Z,9.42
2019-01-13T15:32:53.931Z,9.48
2019-01-13T15:35:22.379Z,9.47
2019-01-13T15:37:51.227Z,9.42
2019-01-13T15:40:21.010Z,9.44
2019-01-13T15:42:49.874Z,9.45
2019-01-13T15:45:18.892Z,9.48
2019-01-13T15:47:47.579Z,9.49
2019-01-13T15:50:21.580Z,9.52
2019-01-13T15:52:50.116Z,9.49
2019-01-13T15:55:18.885Z,9.37
2019-01-13T15:57:47.659Z,9.53
2019-01-13T16:00:24.805Z,9.54
2019-01-13T16:02:53.585Z,9.35
2019-01-13T16:05:22.016Z,9.31
2019-01-13T16:07:50.867Z,9.39
2019-01-13T16:10:21.433Z,9.41
2019-01-13T16:12:50.117Z,9.42
2019-01-13T16:15:19.063Z,9.42
2019-01-13T16:17:47.826Z,9.38
2019-01-13T16:20:22.358Z,9.49
2019-01-13T16:22:51.338Z,9.33
2019-01-13T16:25:20.051Z,9.47
2019-01-13T16:27:48.558Z,9.49
2019-01-13T16:30:19.992Z,9.53
2019-01-13T16:32:48.777Z,9.63
2019-01-13T16:35:17.502Z,9.49
2019-01-13T16:37:46.117Z,9.48
2019-01-13T16:40:16.583Z,9.48
2019-01-13T16:42:45.287Z,9.48
2019-01-13T16:45:16.323Z,9.55
2019-01-13T16:47:45.380Z,9.58
2019-01-13T16:50:19.084Z,9.56
2019-01-13T16:52:50.068Z,9.58
2019-01-13T16:55:19.517Z,9.68
2019-01-13T16:57:48.089Z,9.74
2019-01-13T17:00:19.767Z,9.79
2019-01-13T17:02:48.336Z,9.80
2019-01-13T17:05:19.167Z,9.77
2019-01-13T17:07:48.034Z,9.79
2019-01-13T17:10:21.554Z,9.80
2019-01-13T17:12:50.338Z,9.72
2019-01-13T17:15:24.019Z,9.72
2019-01-13T17:17:52.725Z,9.70
2019-01-13T17:20:22.880Z,9.80
2019-01-13T17:22:51.685Z,9.67
2019-01-13T17:25:22.609Z,9.63
2019-01-13T17:27:51.378Z,9.66
2019-01-13T17:30:25.680Z,9.81
2019-01-13T17:32:54.118Z,9.92
2019-01-13T17:35:22.829Z,9.66
2019-01-13T17:37:51.746Z,9.64
2019-01-13T17:40:22.270Z,9.61
2019-01-13T17:42:50.868Z,9.72
2019-01-13T17:45:21.570Z,9.75
2019-01-13T17:47:50.340Z,9.69
2019-01-13T17:50:21.455Z,9.66
2019-01-13T17:52:50.066Z,9.63
2019-01-13T17:55:23.786Z,9.71
2019-01-13T17:57:52.400Z,9.76
2019-01-13T18:00:35.397Z,9.77
2019-01-13T18:03:07.341Z,9.79
2019-01-13T18:05:36.031Z,9.83
2019-01-13T18:08:05.094Z,9.96
2019-01-13T18:10:33.776Z,9.91
2019-01-13T18:13:02.570Z,9.92
2019-01-13T18:15:31.408Z,9.93
2019-01-13T18:17:59.906Z,9.99
2019-01-13T18:20:28.626Z,10.07
2019-01-13T18:22:57.529Z,10.11
2019-01-13T18:25:26.033Z,10.08
2019-01-13T18:27:54.480Z,10.15
2019-01-13T18:30:25.771Z,10.12
2019-01-13T18:32:54.659Z,10.17
2019-01-13T18:35:23.808Z,10.10
2019-01-13T18:37:52.635Z,10.04
2019-01-13T18:40:22.601Z,10.02
2019-01-13T18:42:51.448Z,10.02
2019-01-13T18:45:20.185Z,9.97
2019-01-13T18:47:48.689Z,10.03
2019-01-13T18:50:21.436Z,9.92
2019-01-13T18:53:04.613Z,9.95
2019-01-13T18:55:33.053Z,9.90
2019-01-13T18:58:01.494Z,9.90
2019-01-13T19:00:30.391Z,9.88
2019-01-13T19:02:58.823Z,9.86
2019-01-13T19:05:28.776Z,9.88
2019-01-13T19:07:57.582Z,9.78
2019-01-13T19:10:32.329Z,9.80
2019-01-13T19:13:09.382Z,9.85
2019-01-13T19:15:38.175Z,9.83
2019-01-13T19:18:06.937Z,9.87
2019-01-13T19:20:35.976Z,9.85
2019-01-13T19:23:05.127Z,9.87
2019-01-13T19:25:33.887Z,9.80
2019-01-13T19:28:02.724Z,9.80
2019-01-13T19:30:31.522Z,9.77
2019-01-13T19:33:00.097Z,9.78
2019-01-13T19:35:28.858Z,9.81
2019-01-13T19:37:57.591Z,9.73
2019-01-13T19:40:26.090Z,9.78
2019-01-13T19:42:54.835Z,9.68
2019-01-13T19:45:25.400Z,9.70
2019-01-13T19:47:54.036Z,9.69
2019-01-13T19:50:24.503Z,9.67
2019-01-13T19:52:53.226Z,9.57
2019-01-13T19:55:21.934Z,9.49
2019-01-13T19:57:50.792Z,9.46
2019-01-13T20:00:24.885Z,9.40
2019-01-13T20:02:53.553Z,9.42
2019-01-13T20:05:22.733Z,9.38
2019-01-13T20:07:52.870Z,9.32
2019-01-13T20:10:22.905Z,9.34
2019-01-13T20:12:51.876Z,9.32
2019-01-13T20:15:21.792Z,9.20
2019-01-13T20:17:50.542Z,9.18
2019-01-13T20:20:20.720Z,9.24
2019-01-13T20:22:49.426Z,9.20
2019-01-13T20:25:19.570Z,9.36
2019-01-13T20:27:48.414Z,9.29
2019-01-13T20:30:19.495Z,9.32
2019-01-13T20:32:48.133Z,9.18
2019-01-13T20:35:19.381Z,9.15
2019-01-13T20:37:47.491Z,9.08
2019-01-13T20:40:17.583Z,9.09
2019-01-13T20:42:47.589Z,9.15
2019-01-13T20:45:24.678Z,9.19
2019-01-13T20:47:53.574Z,9.20
2019-01-13T20:50:22.493Z,9.19
2019-01-13T20:52:51.083Z,9.24
2019-01-13T20:55:19.566Z,9.23
2019-01-13T20:57:48.269Z,9.29
2019-01-13T21:00:24.761Z,9.32
2019-01-13T21:02:53.633Z,9.50
2019-01-13T21:05:26.885Z,9.34
2019-01-13T21:07:53.572Z,9.44
2019-01-13T21:10:22.243Z,9.36
2019-01-13T21:12:51.097Z,9.26
2019-01-13T21:15:34.076Z,9.42
2019-01-13T21:18:02.509Z,9.26
2019-01-13T21:20:31.004Z,9.11
2019-01-13T21:22:59.720Z,9.04
2019-01-13T21:25:28.559Z,8.81
2019-01-13T21:27:58.898Z,8.81
2019-01-13T21:30:30.774Z,8.76
2019-01-13T21:32:59.618Z,8.76
2019-01-13T21:35:33.805Z,8.73
2019-01-13T21:37:59.250Z,8.70
2019-01-13T21:40:27.752Z,8.59
2019-01-13T21:42:56.463Z,8.59
2019-01-13T21:45:25.337Z,8.49
2019-01-13T21:47:54.119Z,8.45
2019-01-13T21:50:24.939Z,8.31
2019-01-13T21:52:53.798Z,8.20
2019-01-13T21:55:22.354Z,8.15
2019-01-13T21:57:50.771Z,8.09
2019-01-13T22:00:25.151Z,7.90
2019-01-13T22:02:53.822Z,7.72
2019-01-13T22:05:23.619Z,7.65
2019-01-13T22:07:52.340Z,7.58
2019-01-13T22:10:22.594Z,7.58
2019-01-13T22:12:51.103Z,7.51
2019-01-13T22:15:20.868Z,7.48
2019-01-13T22:17:49.425Z,7.47
2019-01-13T22:20:19.781Z,7.54
2019-01-13T22:22:48.373Z,7.54
2019-01-13T22:25:17.841Z,7.61
2019-01-13T22:27:46.335Z,7.71
2019-01-13T22:30:16.998Z,7.72
2019-01-13T22:32:45.574Z,7.51
2019-01-13T22:35:14.057Z,7.38
2019-01-13T22:37:42.658Z,7.25
2019-01-13T22:40:16.479Z,7.16
2019-01-13T22:42:45.033Z,7.13
2019-01-13T22:45:16.073Z,7.10
2019-01-13T22:47:44.505Z,7.10
2019-01-13T22:50:15.167Z,7.07
2019-01-13T22:52:43.780Z,6.92
2019-01-13T22:55:12.606Z,6.98
2019-01-13T22:57:41.022Z,7.24
2019-01-13T23:00:44.740Z,7.17
2019-01-13T23:03:13.187Z,7.29
2019-01-13T23:05:41.685Z,7.59
2019-01-13T23:08:10.218Z,7.64
2019-01-13T23:10:38.728Z,7.69
2019-01-13T23:13:07.145Z,7.59
2019-01-13T23:15:35.691Z,7.69
2019-01-13T23:18:04.282Z,7.63
2019-01-13T23:20:32.700Z,7.62
2019-01-13T23:23:01.146Z,7.57
2019-01-13T23:25:29.562Z,7.70
2019-01-13T23:27:57.982Z,7.62
2019-01-13T23:30:26.810Z,7.66
2019-01-13T23:32:55.474Z,7.68
2019-01-13T23:35:23.893Z,7.65
2019-01-13T23:37:52.489Z,7.63
2019-01-13T23:40:20.934Z,7.57
2019-01-13T23:42:49.497Z,7.66
2019-01-13T23:45:18.424Z,7.65
2019-01-13T23:47:46.843Z,7.64
2019-01-13T23:50:15.332Z,7.51
2019-01-13T23:52:43.879Z,7.53
2019-01-13T23:55:13.146Z,7.65
2019-01-13T23:57:41.625Z,7.71
